createdAt,value
2023-03-04T00:00:31.983Z,2.10
2023-03-04T00:02:59.683Z,2.60
2023-03-04T00:05:29.519Z,1.67
2023-03-04T00:07:57.211Z,2.20
2023-03-04T00:10:24.868Z,2.80
2023-03-04T00:12:52.552Z,2.10
2023-03-04T00:15:20.220Z,1.87
2023-03-04T00:17:47.897Z,2.00
2023-03-04T00:20:15.924Z,2.30
2023-03-04T00:22:44.937Z,2.00
2023-03-04T00:25:12.690Z,2.30
2023-03-04T00:27:40.395Z,2.07
2023-03-04T00:30:09.465Z,1.50
2023-03-04T00:32:37.174Z,1.87
2023-03-04T00:35:05.360Z,1.77
2023-03-04T00:37:33.153Z,1.55
2023-03-04T00:40:02.147Z,1.50
2023-03-04T00:42:29.863Z,2.03
2023-03-04T00:44:57.642Z,2.50
2023-03-04T00:47:25.355Z,1.73
2023-03-04T00:49:53.200Z,2.00
2023-03-04T00:52:20.933Z,2.45
2023-03-04T00:54:48.641Z,1.80
2023-03-04T00:57:17.647Z,1.90
2023-03-04T00:59:46.296Z,1.47
2023-03-04T01:02:14.118Z,1.38
2023-03-04T01:04:42.955Z,1.75
2023-03-04T01:09:38.259Z,2.30
2023-03-04T01:12:06.152Z,1.77
2023-03-04T01:14:35.232Z,1.80
2023-03-04T01:17:02.972Z,1.83
2023-03-04T01:19:30.735Z,1.63
2023-03-04T01:21:58.434Z,2.13
2023-03-04T01:24:26.189Z,1.87
2023-03-04T01:26:53.918Z,1.53
2023-03-04T01:29:21.599Z,2.00
2023-03-04T01:31:50.676Z,2.93
2023-03-04T01:34:18.684Z,1.53
2023-03-04T01:36:46.433Z,1.65
2023-03-04T01:39:14.015Z,2.00
2023-03-04T01:41:42.000Z,2.20
2023-03-04T01:44:12.077Z,1.88
2023-03-04T01:46:43.512Z,1.90
2023-03-04T01:49:15.740Z,1.87
2023-03-04T01:51:45.006Z,1.80
2023-03-04T01:54:12.603Z,1.83
2023-03-04T01:56:41.397Z,1.33
2023-03-04T02:01:43.038Z,1.60
2023-03-04T02:04:13.260Z,2.50
2023-03-04T02:06:42.228Z,1.60
2023-03-04T02:09:10.210Z,1.37
2023-03-04T02:11:39.434Z,1.80
2023-03-04T02:14:07.715Z,1.53
2023-03-04T02:16:35.855Z,1.33
2023-03-04T02:19:06.262Z,2.53
2023-03-04T02:21:35.946Z,1.60
2023-03-04T02:24:15.290Z,1.97
2023-03-04T02:26:46.808Z,1.90
2023-03-04T02:29:16.540Z,1.60
2023-03-04T02:31:46.742Z,1.73
2023-03-04T02:34:17.183Z,1.80
2023-03-04T02:36:46.296Z,2.00
2023-03-04T02:39:26.282Z,1.93
2023-03-04T02:41:56.908Z,1.40
2023-03-04T02:44:26.542Z,1.77
2023-03-04T02:46:55.236Z,1.60
2023-03-04T02:49:25.463Z,1.67
2023-03-04T02:51:55.096Z,1.70
2023-03-04T02:54:24.521Z,2.00
2023-03-04T02:56:54.839Z,1.23
2023-03-04T02:59:24.624Z,1.50
2023-03-04T03:01:52.763Z,1.60
2023-03-04T03:04:22.475Z,1.73
2023-03-04T03:06:50.482Z,1.40
2023-03-04T03:09:18.567Z,1.65
2023-03-04T03:11:46.640Z,1.42
2023-03-04T03:14:14.397Z,1.77
2023-03-04T03:16:43.588Z,1.77
2023-03-04T03:19:11.333Z,1.60
2023-03-04T03:21:39.024Z,1.47
2023-03-04T03:24:07.173Z,1.77
2023-03-04T03:26:34.927Z,1.73
2023-03-04T03:29:02.654Z,2.13
2023-03-04T03:31:30.335Z,2.10
2023-03-04T03:33:59.350Z,1.70
2023-03-04T03:36:27.082Z,2.00
2023-03-04T03:38:54.804Z,1.70
2023-03-04T03:41:22.542Z,1.80
2023-03-04T03:43:50.276Z,1.40
2023-03-04T03:46:17.915Z,1.40
2023-03-04T03:48:45.629Z,1.67
2023-03-04T03:51:14.697Z,1.63
2023-03-04T03:53:42.396Z,1.77
2023-03-04T03:56:10.212Z,1.47
2023-03-04T03:58:37.976Z,1.80
2023-03-04T04:01:05.947Z,1.70
2023-03-04T04:03:33.682Z,1.70
2023-03-04T04:06:01.379Z,1.60
2023-03-04T04:08:30.452Z,1.73
2023-03-04T04:10:58.341Z,1.50
2023-03-04T04:13:26.321Z,2.05
2023-03-04T04:15:54.277Z,2.00
2023-03-04T04:18:22.197Z,1.33
2023-03-04T04:20:49.936Z,1.48
2023-03-04T04:23:17.638Z,1.60
2023-03-04T04:25:47.176Z,1.80
2023-03-04T04:28:14.815Z,1.70
2023-03-04T04:30:42.691Z,1.37
2023-03-04T04:33:11.314Z,1.55
2023-03-04T04:35:39.805Z,1.45
2023-03-04T04:38:07.944Z,1.77
2023-03-04T04:40:35.864Z,1.60
2023-03-04T04:43:05.094Z,1.40
2023-03-04T04:45:32.788Z,1.53
2023-03-04T04:48:00.511Z,1.60
2023-03-04T04:50:29.853Z,1.73
2023-03-04T04:52:58.855Z,1.70
2023-03-04T04:55:26.926Z,1.90
2023-03-04T04:57:54.565Z,1.30
2023-03-04T05:00:23.985Z,1.40
2023-03-04T05:02:51.770Z,1.70
2023-03-04T05:05:19.581Z,1.37
2023-03-04T05:07:47.262Z,1.70
2023-03-04T05:10:15.007Z,1.40
2023-03-04T05:12:42.657Z,1.77
2023-03-04T05:15:11.005Z,2.00
2023-03-04T05:17:40.008Z,1.70
2023-03-04T05:20:08.784Z,1.63
2023-03-04T05:25:04.397Z,1.60
2023-03-04T05:27:32.111Z,1.17
2023-03-04T05:30:00.823Z,1.50
2023-03-04T05:32:29.189Z,1.40
2023-03-04T05:34:58.183Z,1.48
2023-03-04T05:37:25.893Z,1.30
2023-03-04T05:39:53.583Z,1.47
2023-03-04T05:42:21.260Z,1.57
2023-03-04T05:44:48.944Z,1.43
2023-03-04T05:47:16.623Z,1.20
2023-03-04T05:49:44.603Z,1.70
2023-03-04T05:52:13.669Z,1.55
2023-03-04T05:54:41.426Z,1.77
2023-03-04T05:57:09.147Z,1.60
2023-03-04T05:59:36.848Z,1.53
2023-03-04T06:04:33.436Z,1.80
2023-03-04T06:07:01.185Z,2.13
2023-03-04T06:09:30.361Z,1.53
2023-03-04T06:11:58.208Z,1.50
2023-03-04T06:14:26.034Z,1.40
2023-03-04T06:16:53.735Z,1.40
2023-03-04T06:19:21.583Z,1.90
2023-03-04T06:21:49.303Z,1.60
2023-03-04T06:24:17.159Z,1.80
2023-03-04T06:26:46.221Z,1.48
2023-03-04T06:29:14.060Z,1.60
2023-03-04T06:31:42.145Z,1.77
2023-03-04T06:34:10.437Z,1.30
2023-03-04T06:36:38.154Z,1.25
2023-03-04T06:39:06.656Z,1.63
2023-03-04T06:41:35.028Z,1.20
2023-03-04T06:44:04.200Z,1.60
2023-03-04T06:46:33.947Z,1.30
2023-03-04T06:49:01.926Z,1.50
2023-03-04T06:51:30.397Z,1.77
2023-03-04T06:53:58.093Z,1.70
2023-03-04T06:56:25.895Z,1.57
2023-03-04T06:58:53.591Z,1.00
2023-03-04T07:01:24.747Z,1.10
2023-03-04T07:03:53.839Z,0.83
2023-03-04T07:06:23.228Z,0.80
2023-03-04T07:08:50.925Z,0.67
2023-03-04T07:11:19.680Z,1.00
2023-03-04T07:16:17.814Z,0.80
2023-03-04T07:18:47.268Z,0.97
2023-03-04T07:21:16.076Z,1.20
2023-03-04T07:26:11.490Z,0.90
2023-03-04T07:28:39.257Z,0.80
2023-03-04T07:31:12.043Z,1.00
2023-03-04T07:33:39.945Z,1.40
2023-03-04T07:36:09.222Z,1.10
2023-03-04T07:38:36.983Z,1.10
2023-03-04T07:41:04.862Z,1.23
2023-03-04T07:43:32.484Z,1.80
2023-03-04T07:46:01.927Z,0.73
2023-03-04T07:48:30.039Z,1.00
2023-03-04T07:51:10.055Z,0.93
2023-03-04T07:53:38.506Z,1.37
2023-03-04T07:56:08.231Z,1.08
2023-03-04T07:58:36.015Z,1.00
2023-03-04T08:01:10.141Z,1.10
2023-03-04T08:03:37.885Z,0.57
2023-03-04T08:06:07.209Z,0.90
2023-03-04T08:08:36.894Z,0.93
2023-03-04T08:11:06.020Z,0.90
2023-03-04T08:13:33.840Z,1.53
2023-03-04T08:16:01.886Z,1.10
2023-03-04T08:18:29.675Z,1.13
2023-03-04T08:20:57.656Z,0.90
2023-03-04T08:23:25.617Z,0.93
2023-03-04T08:25:54.713Z,1.20
2023-03-04T08:28:22.557Z,0.90
2023-03-04T08:30:54.410Z,0.80
2023-03-04T08:33:22.145Z,0.80
2023-03-04T08:35:49.863Z,0.73
2023-03-04T08:38:17.544Z,0.83
2023-03-04T08:40:45.272Z,0.90
2023-03-04T08:43:14.455Z,1.00
2023-03-04T08:45:42.195Z,0.90
2023-03-04T08:48:09.937Z,0.70
2023-03-04T08:50:37.714Z,1.20
2023-03-04T08:53:05.577Z,0.60
2023-03-04T08:55:33.360Z,1.08
2023-03-04T08:58:01.174Z,0.80
2023-03-04T09:00:30.209Z,0.80
2023-03-04T09:02:57.868Z,0.90
2023-03-04T09:05:25.624Z,0.77
2023-03-04T09:07:54.189Z,0.90
2023-03-04T09:10:21.991Z,0.90
2023-03-04T09:12:49.805Z,0.93
2023-03-04T09:15:17.680Z,0.80
2023-03-04T09:17:47.011Z,1.10
2023-03-04T09:20:14.867Z,0.80
2023-03-04T09:22:43.278Z,0.70
2023-03-04T09:25:14.768Z,0.90
2023-03-04T09:27:42.857Z,0.63
2023-03-04T09:30:11.878Z,0.93
2023-03-04T09:32:40.106Z,1.10
2023-03-04T09:35:10.088Z,1.08
2023-03-04T09:37:41.216Z,1.00
2023-03-04T09:40:12.793Z,0.90
2023-03-04T09:42:47.833Z,0.80
2023-03-04T09:45:21.462Z,0.60
2023-03-04T09:47:52.225Z,0.80
2023-03-04T09:50:23.189Z,0.90
2023-03-04T09:53:07.708Z,0.80
2023-03-04T09:55:39.088Z,0.83
2023-03-04T09:58:23.002Z,0.80
2023-03-04T10:00:57.168Z,1.30
2023-03-04T10:03:28.728Z,1.00
2023-03-04T10:06:02.117Z,0.90
2023-03-04T10:08:39.260Z,0.90
2023-03-04T10:11:14.135Z,1.00
2023-03-04T10:13:51.593Z,1.13
2023-03-04T10:16:22.902Z,1.03
2023-03-04T10:18:55.638Z,1.07
2023-03-04T10:21:30.976Z,0.50
2023-03-04T10:23:59.882Z,1.07
2023-03-04T10:26:32.947Z,0.90
2023-03-04T10:29:02.934Z,1.20
2023-03-04T10:31:36.611Z,1.53
2023-03-04T10:34:04.858Z,1.20
2023-03-04T10:36:48.799Z,1.20
2023-03-04T10:39:22.768Z,1.10
2023-03-04T10:41:57.912Z,1.13
2023-03-04T10:44:25.921Z,1.00
2023-03-04T10:46:56.107Z,0.90
2023-03-04T10:49:25.782Z,1.17
2023-03-04T10:52:02.131Z,1.00
2023-03-04T10:54:32.280Z,1.00
2023-03-04T10:57:02.746Z,0.83
2023-03-04T10:59:50.520Z,0.80
2023-03-04T11:02:24.096Z,1.10
2023-03-04T11:04:58.672Z,1.13
2023-03-04T11:07:28.312Z,1.20
2023-03-04T11:09:58.291Z,1.00
2023-03-04T11:12:35.078Z,1.10
2023-03-04T11:15:03.613Z,0.90
2023-03-04T11:17:44.031Z,1.35
2023-03-04T11:20:17.750Z,1.10
2023-03-04T11:22:47.627Z,1.07
2023-03-04T11:25:26.347Z,1.00
2023-03-04T11:30:37.737Z,1.07
2023-03-04T11:33:16.644Z,1.00
2023-03-04T11:35:54.961Z,1.10
2023-03-04T11:38:29.978Z,1.15
2023-03-04T11:41:01.275Z,1.40
2023-03-04T11:43:35.756Z,0.97
2023-03-04T11:46:37.842Z,0.83
2023-03-04T11:49:40.669Z,1.20
2023-03-04T11:52:17.541Z,2.13
2023-03-04T11:55:01.620Z,1.20
2023-03-04T11:57:38.758Z,1.20
2023-03-04T12:00:21.484Z,1.30
2023-03-04T12:03:04.279Z,1.07
2023-03-04T12:05:44.641Z,1.60
2023-03-04T12:08:29.181Z,1.87
2023-03-04T12:11:04.900Z,1.60
2023-03-04T12:14:05.288Z,1.97
2023-03-04T12:16:46.860Z,2.20
2023-03-04T12:19:27.831Z,2.03
2023-03-04T12:22:09.599Z,1.70
2023-03-04T12:24:57.973Z,3.47
2023-03-04T12:27:32.223Z,2.35
2023-03-04T12:30:06.352Z,2.50
2023-03-04T12:32:42.748Z,1.50
2023-03-04T12:35:29.915Z,1.70
2023-03-04T12:38:07.336Z,2.57
2023-03-04T12:40:43.128Z,3.10
2023-03-04T12:43:43.076Z,1.90
2023-03-04T12:46:21.997Z,2.17
2023-03-04T12:49:01.207Z,2.13
2023-03-04T12:51:34.760Z,2.03
2023-03-04T12:54:18.906Z,2.40
2023-03-04T12:56:53.115Z,1.97
2023-03-04T12:59:26.527Z,1.90
2023-03-04T13:02:04.969Z,2.03
2023-03-04T13:04:47.836Z,1.97
2023-03-04T13:07:23.265Z,1.83
2023-03-04T13:09:58.366Z,1.87
2023-03-04T13:12:26.584Z,2.00
2023-03-04T13:15:27.451Z,1.95
2023-03-04T13:17:58.291Z,2.10
2023-03-04T13:20:34.928Z,1.50
2023-03-04T13:23:05.019Z,1.33
2023-03-04T13:25:39.609Z,1.57
2023-03-04T13:28:16.237Z,1.60
2023-03-04T13:31:09.090Z,1.70
2023-03-04T13:34:02.675Z,2.40
2023-03-04T13:36:56.638Z,2.23
2023-03-04T13:39:37.503Z,2.03
2023-03-04T13:42:43.913Z,1.90
2023-03-04T13:45:32.702Z,1.30
2023-03-04T13:48:01.654Z,2.00
2023-03-04T13:50:46.222Z,2.00
2023-03-04T13:53:31.510Z,2.70
2023-03-04T13:56:27.025Z,1.77
2023-03-04T13:59:14.444Z,1.80
2023-03-04T14:02:01.443Z,1.50
2023-03-04T14:04:32.191Z,1.63
2023-03-04T14:07:01.301Z,1.67
2023-03-04T14:09:31.582Z,1.67
2023-03-04T14:12:02.626Z,1.30
2023-03-04T14:14:41.025Z,1.43
2023-03-04T14:17:19.039Z,1.25
2023-03-04T14:19:48.908Z,1.70
2023-03-04T14:22:25.727Z,1.43
2023-03-04T14:25:02.364Z,1.27
2023-03-04T14:27:32.974Z,1.23
2023-03-04T14:30:03.770Z,1.00
2023-03-04T14:32:32.284Z,1.70
2023-03-04T14:35:05.759Z,1.40
2023-03-04T14:37:43.486Z,1.20
2023-03-04T14:40:26.320Z,1.47
2023-03-04T14:42:57.899Z,1.27
2023-03-04T14:45:27.661Z,1.20
2023-03-04T14:47:59.412Z,1.10
2023-03-04T14:50:27.132Z,1.30
2023-03-04T14:53:14.411Z,1.53
2023-03-04T14:55:55.865Z,0.87
2023-03-04T14:58:25.754Z,1.00
2023-03-04T15:01:06.820Z,2.10
2023-03-04T15:03:36.299Z,1.10
2023-03-04T15:06:19.264Z,1.30
2023-03-04T15:08:48.325Z,1.40
2023-03-04T15:11:25.022Z,0.90
2023-03-04T15:13:54.940Z,0.80
2023-03-04T15:16:25.989Z,0.83
2023-03-04T15:19:03.303Z,1.27
2023-03-04T15:21:37.862Z,1.50
2023-03-04T15:24:07.148Z,1.13
2023-03-04T15:26:39.006Z,1.30
2023-03-04T15:29:14.685Z,1.10
2023-03-04T15:31:44.752Z,1.20
2023-03-04T15:34:14.358Z,1.10
2023-03-04T15:36:42.483Z,1.60
2023-03-04T15:39:13.586Z,1.50
2023-03-04T15:41:41.397Z,1.50
2023-03-04T15:44:12.206Z,1.30
2023-03-04T15:46:40.034Z,1.37
2023-03-04T15:49:09.252Z,1.17
2023-03-04T15:51:37.326Z,1.50
2023-03-04T15:54:05.688Z,1.42
2023-03-04T15:56:35.335Z,1.98
2023-03-04T15:59:05.761Z,1.20
2023-03-04T16:01:33.512Z,1.70
2023-03-04T16:04:01.330Z,1.55
2023-03-04T16:06:32.412Z,1.57
2023-03-04T16:09:01.321Z,1.33
2023-03-04T16:11:33.720Z,1.30
2023-03-04T16:14:01.771Z,2.30
2023-03-04T16:16:29.621Z,1.58
2023-03-04T16:18:57.196Z,1.63
2023-03-04T16:21:24.920Z,2.50
2023-03-04T16:23:55.214Z,5.63
2023-03-04T16:26:25.206Z,2.00
2023-03-04T16:28:53.908Z,1.40
2023-03-04T16:31:22.869Z,1.50
2023-03-04T16:33:50.583Z,1.60
2023-03-04T16:36:22.191Z,1.40
2023-03-04T16:38:50.924Z,1.90
2023-03-04T16:41:23.507Z,1.85
2023-03-04T16:43:51.191Z,1.30
2023-03-04T16:46:19.010Z,1.97
2023-03-04T16:48:48.184Z,1.63
2023-03-04T16:51:17.902Z,2.17
2023-03-04T16:53:49.097Z,1.63
2023-03-04T16:56:18.627Z,2.10
2023-03-04T16:58:48.254Z,2.07
2023-03-04T17:01:18.686Z,2.13
2023-03-04T17:03:46.743Z,2.70
2023-03-04T17:06:15.160Z,3.38
2023-03-04T17:08:43.430Z,2.63
2023-03-04T17:11:13.605Z,2.30
2023-03-04T17:13:41.286Z,1.87
2023-03-04T17:16:13.152Z,1.70
2023-03-04T17:18:41.219Z,1.83
2023-03-04T17:21:12.340Z,2.00
2023-03-04T17:23:40.069Z,2.67
2023-03-04T17:26:09.261Z,2.40
2023-03-04T17:28:37.521Z,3.23
2023-03-04T17:31:11.556Z,1.90
2023-03-04T17:33:39.324Z,1.63
2023-03-04T17:36:09.335Z,1.90
2023-03-04T17:38:39.282Z,2.30
2023-03-04T17:41:09.138Z,2.08
2023-03-04T17:43:37.047Z,3.00
2023-03-04T17:46:06.398Z,1.90
2023-03-04T17:48:36.029Z,2.50
2023-03-04T17:51:04.008Z,2.37
2023-03-04T17:53:32.992Z,2.25
2023-03-04T17:56:02.382Z,2.20
2023-03-04T17:58:31.782Z,1.83
2023-03-04T18:01:04.056Z,2.47
2023-03-04T18:03:32.225Z,2.47
2023-03-04T18:06:01.273Z,2.95
2023-03-04T18:08:29.040Z,3.23
2023-03-04T18:10:56.794Z,3.10
2023-03-04T18:13:24.472Z,2.60
2023-03-04T18:15:52.220Z,2.20
2023-03-04T18:18:19.970Z,2.30
2023-03-04T18:20:47.953Z,2.33
2023-03-04T18:23:16.987Z,2.22
2023-03-04T18:25:44.722Z,3.27
2023-03-04T18:28:12.446Z,2.33
2023-03-04T18:30:40.074Z,3.00
2023-03-04T18:33:07.928Z,3.13
2023-03-04T18:35:35.860Z,3.03
2023-03-04T18:38:03.738Z,2.72
2023-03-04T18:40:33.016Z,2.77
2023-03-04T18:43:01.188Z,3.53
2023-03-04T18:45:28.999Z,2.47
2023-03-04T18:47:57.505Z,2.15
2023-03-04T18:50:25.249Z,2.65
2023-03-04T18:52:53.627Z,1.93
2023-03-04T18:55:22.062Z,2.30
2023-03-04T18:57:53.947Z,2.58
2023-03-04T19:00:23.473Z,2.50
2023-03-04T19:02:55.871Z,2.30
2023-03-04T19:05:27.644Z,2.50
2023-03-04T19:07:55.843Z,2.73
2023-03-04T19:10:25.470Z,2.80
2023-03-04T19:12:54.536Z,2.90
2023-03-04T19:15:22.198Z,2.67
2023-03-04T19:17:49.865Z,2.63
2023-03-04T19:20:18.261Z,2.93
2023-03-04T19:22:46.041Z,3.45
2023-03-04T19:25:13.658Z,3.93
2023-03-04T19:27:41.485Z,3.87
2023-03-04T19:30:11.864Z,4.40
2023-03-04T19:32:39.605Z,3.70
2023-03-04T19:35:07.900Z,3.13
2023-03-04T19:37:38.417Z,2.65
2023-03-04T19:40:07.299Z,3.30
2023-03-04T19:42:35.124Z,2.60
2023-03-04T19:45:09.251Z,2.20
2023-03-04T19:47:38.921Z,2.20
2023-03-04T19:50:09.037Z,3.23
2023-03-04T19:52:37.192Z,3.40
2023-03-04T19:55:05.867Z,2.53
2023-03-04T19:57:34.007Z,3.20
2023-03-04T20:00:01.691Z,2.60
2023-03-04T20:02:29.398Z,3.03
2023-03-04T20:04:59.843Z,3.13
2023-03-04T20:07:27.498Z,3.17
2023-03-04T20:09:55.673Z,2.63
2023-03-04T20:12:23.944Z,3.10
2023-03-04T20:14:52.143Z,3.38
2023-03-04T20:17:19.877Z,3.15
2023-03-04T20:19:47.516Z,3.53
2023-03-04T20:22:16.559Z,3.40
2023-03-04T20:24:44.327Z,3.50
2023-03-04T20:27:14.632Z,3.17
2023-03-04T20:29:42.354Z,3.37
2023-03-04T20:32:10.110Z,2.90
2023-03-04T20:34:37.858Z,2.90
2023-03-04T20:37:05.537Z,2.97
2023-03-04T20:39:34.531Z,3.10
2023-03-04T20:42:02.154Z,2.30
2023-03-04T20:44:29.862Z,2.67
2023-03-04T20:46:57.588Z,2.97
2023-03-04T20:49:27.852Z,2.57
2023-03-04T20:52:00.165Z,2.47
2023-03-04T20:54:27.864Z,2.60
2023-03-04T20:56:56.945Z,2.97
2023-03-04T20:59:24.739Z,2.30
2023-03-04T21:01:52.510Z,2.93
2023-03-04T21:04:21.702Z,3.50
2023-03-04T21:06:51.508Z,2.33
2023-03-04T21:09:21.104Z,3.60
2023-03-04T21:11:51.407Z,3.07
2023-03-04T21:14:23.058Z,2.83
2023-03-04T21:16:52.581Z,3.37
2023-03-04T21:19:22.449Z,3.00
2023-03-04T21:21:51.273Z,4.57
2023-03-04T21:29:17.936Z,2.90
2023-03-04T21:31:50.302Z,2.10
2023-03-04T21:34:20.667Z,2.47
2023-03-04T21:36:48.460Z,2.67
2023-03-04T21:39:18.731Z,2.60
2023-03-04T21:41:47.320Z,3.13
2023-03-04T21:44:27.837Z,3.45
2023-03-04T21:46:58.447Z,3.50
2023-03-04T21:49:26.193Z,3.10
2023-03-04T21:51:53.865Z,3.77
2023-03-04T21:54:21.952Z,3.83
2023-03-04T21:56:50.275Z,3.90
2023-03-04T21:59:18.468Z,3.20
2023-03-04T22:01:46.826Z,2.35
2023-03-04T22:04:15.921Z,2.65
2023-03-04T22:06:43.731Z,2.33
2023-03-04T22:09:12.209Z,2.40
2023-03-04T22:11:39.915Z,3.00
2023-03-04T22:14:08.318Z,2.20
2023-03-04T22:16:48.977Z,2.10
2023-03-04T22:19:23.414Z,2.10
2023-03-04T22:21:52.275Z,3.03
2023-03-04T22:26:47.790Z,2.70
2023-03-04T22:29:15.462Z,2.23
2023-03-04T22:31:43.371Z,2.43
2023-03-04T22:34:13.259Z,1.80
2023-03-04T22:36:44.542Z,1.90
2023-03-04T22:39:14.321Z,1.70
2023-03-04T22:41:42.602Z,1.70
2023-03-04T22:44:10.292Z,1.63
2023-03-04T22:46:39.645Z,1.53
2023-03-04T22:49:09.949Z,1.90
2023-03-04T22:51:38.560Z,1.60
2023-03-04T22:54:07.864Z,1.77
2023-03-04T22:56:36.470Z,1.47
2023-03-04T22:59:04.280Z,2.50
2023-03-04T23:01:32.288Z,2.23
2023-03-04T23:04:00.275Z,2.33
2023-03-04T23:06:30.314Z,2.30
2023-03-04T23:08:59.507Z,2.07
2023-03-04T23:11:31.179Z,2.60
2023-03-04T23:14:02.091Z,2.70
2023-03-04T23:16:29.918Z,3.00
2023-03-04T23:18:59.621Z,3.17
2023-03-04T23:21:29.079Z,2.40
2023-03-04T23:23:56.815Z,2.37
2023-03-04T23:26:28.719Z,2.33
2023-03-04T23:28:57.270Z,3.20
2023-03-04T23:31:25.625Z,2.92
2023-03-04T23:33:57.073Z,2.85
2023-03-04T23:36:26.737Z,2.60
2023-03-04T23:38:54.793Z,3.10
2023-03-04T23:41:24.978Z,2.90
2023-03-04T23:43:55.384Z,3.10
2023-03-04T23:46:23.673Z,2.90
2023-03-04T23:48:51.696Z,2.20
2023-03-04T23:51:21.443Z,2.88
2023-03-04T23:53:49.730Z,2.67
2023-03-04T23:56:20.242Z,3.17
2023-03-04T23:58:48.269Z,2.50
